createdAt,value
2019-01-31T00:00:22.098Z,-432.93
2019-01-31T00:01:22.341Z,-430.12
2019-01-31T00:02:22.472Z,-430.49
2019-01-31T00:03:22.688Z,-432.20
2019-01-31T00:04:22.877Z,-430.64
2019-01-31T00:05:23.069Z,-433.24
2019-01-31T00:06:23.353Z,-429.60
2019-01-31T00:07:23.450Z,-431.73
2019-01-31T00:08:23.671Z,-432.46
2019-01-31T00:09:23.862Z,-429.98
2019-01-31T00:10:24.055Z,-432.07
2019-01-31T00:11:24.284Z,-432.72
2019-01-31T00:12:24.439Z,-432.30
2019-01-31T00:13:24.632Z,-428.81
2019-01-31T00:14:24.857Z,-432.18
2019-01-31T00:15:25.102Z,-431.33
2019-01-31T00:16:25.257Z,-431.28
2019-01-31T00:17:25.399Z,-431.93
2019-01-31T00:18:25.577Z,-432.97
2019-01-31T00:19:25.798Z,-455.15
2019-01-31T00:20:26.011Z,-456.11
2019-01-31T00:21:26.233Z,-456.80
2019-01-31T00:22:26.387Z,-457.22
2019-01-31T00:23:26.714Z,-454.47
2019-01-31T00:24:26.841Z,-455.95
2019-01-31T00:25:26.996Z,-456.86
2019-01-31T00:26:27.211Z,-454.78
2019-01-31T00:27:27.387Z,-454.30
2019-01-31T00:28:27.579Z,-455.56
2019-01-31T00:29:27.780Z,-456.35
2019-01-31T00:30:27.976Z,-458.32
2019-01-31T00:31:28.286Z,-455.56
2019-01-31T00:32:28.352Z,-454.85
2019-01-31T00:33:28.541Z,-454.81
2019-01-31T00:34:28.752Z,-455.01
2019-01-31T00:35:28.910Z,-457.07
2019-01-31T00:36:29.135Z,-456.37
2019-01-31T00:37:29.319Z,-455.28
2019-01-31T00:38:29.500Z,-456.05
2019-01-31T00:39:29.748Z,-453.99
2019-01-31T00:40:29.863Z,-457.71
2019-01-31T00:41:30.064Z,-454.83
2019-01-31T00:42:30.262Z,-457.04
2019-01-31T00:43:30.443Z,-457.03
2019-01-31T00:44:30.659Z,-455.08
2019-01-31T00:45:30.840Z,-458.02
2019-01-31T00:46:31.052Z,-457.47
2019-01-31T00:47:31.273Z,-457.27
2019-01-31T00:48:31.480Z,-458.24
2019-01-31T00:49:31.624Z,-456.32
2019-01-31T00:50:31.796Z,-456.39
2019-01-31T00:51:32.002Z,-457.18
2019-01-31T00:52:32.158Z,-455.67
2019-01-31T00:53:32.389Z,-455.66
2019-01-31T00:54:32.589Z,-456.40
2019-01-31T00:55:32.849Z,-455.31
2019-01-31T00:56:33.200Z,-456.66
2019-01-31T00:57:33.201Z,-456.83
2019-01-31T00:58:33.427Z,-456.95
2019-01-31T00:59:33.620Z,-455.30
2019-01-31T01:00:33.789Z,-455.30
2019-01-31T01:01:34.002Z,-455.96
2019-01-31T01:02:34.173Z,-456.62
2019-01-31T01:03:36.753Z,-456.36
2019-01-31T01:04:34.706Z,-457.65
2019-01-31T01:05:34.747Z,-455.47
2019-01-31T01:06:34.958Z,-454.40
2019-01-31T01:07:35.132Z,-456.24
2019-01-31T01:08:35.333Z,-456.89
2019-01-31T01:09:35.534Z,-454.59
2019-01-31T01:10:35.711Z,-455.99
2019-01-31T01:11:36.160Z,-455.24
2019-01-31T01:12:36.127Z,-456.46
2019-01-31T01:13:36.280Z,-455.84
2019-01-31T01:14:36.469Z,-457.10
2019-01-31T01:15:36.653Z,-456.76
2019-01-31T01:16:36.858Z,-456.14
2019-01-31T01:17:37.045Z,-457.04
2019-01-31T01:18:37.250Z,-457.31
2019-01-31T01:19:37.442Z,-456.13
2019-01-31T01:20:37.700Z,-457.01
2019-01-31T01:21:37.790Z,-456.17
2019-01-31T01:22:38.014Z,-454.70
2019-01-31T01:23:38.227Z,-456.82
2019-01-31T01:24:38.419Z,-455.34
2019-01-31T01:25:38.593Z,-457.27
2019-01-31T01:26:38.778Z,-456.02
2019-01-31T01:27:38.992Z,-458.52
2019-01-31T01:28:39.232Z,-454.81
2019-01-31T01:29:39.527Z,-455.88
2019-01-31T01:30:39.582Z,-454.89
2019-01-31T01:31:39.757Z,-455.48
2019-01-31T01:32:39.979Z,-456.97
2019-01-31T01:33:40.176Z,-455.16
2019-01-31T01:34:40.367Z,-457.58
2019-01-31T01:35:40.543Z,-457.95
2019-01-31T01:36:40.736Z,-459.64
2019-01-31T01:37:41.251Z,-457.72
2019-01-31T01:38:41.124Z,-457.57
2019-01-31T01:39:41.307Z,-456.38
2019-01-31T01:40:41.496Z,-459.17
2019-01-31T01:41:41.662Z,-455.63
2019-01-31T01:42:41.870Z,-457.19
2019-01-31T01:43:42.082Z,-458.35
2019-01-31T01:44:42.290Z,-456.30
2019-01-31T01:45:42.495Z,-456.75
2019-01-31T01:46:42.614Z,-457.56
2019-01-31T01:47:42.826Z,-455.69
2019-01-31T01:48:43.030Z,-456.32
2019-01-31T01:49:43.236Z,-457.04
2019-01-31T01:50:43.394Z,-456.91
2019-01-31T01:51:43.585Z,-455.60
2019-01-31T01:52:43.797Z,-456.76
2019-01-31T01:53:44.007Z,-454.95
2019-01-31T01:54:44.174Z,-457.42
2019-01-31T01:55:44.342Z,-458.75
2019-01-31T01:56:44.538Z,-459.25
2019-01-31T01:57:44.734Z,-457.60
2019-01-31T01:58:44.906Z,-458.18
2019-01-31T01:59:45.120Z,-458.85
2019-01-31T02:00:45.289Z,-457.96
2019-01-31T02:01:45.509Z,-456.17
2019-01-31T02:02:45.736Z,-456.92
2019-01-31T02:03:45.865Z,-456.03
2019-01-31T02:04:46.061Z,-457.24
2019-01-31T02:05:46.228Z,-456.69
2019-01-31T02:06:46.430Z,-457.88
2019-01-31T02:07:46.646Z,-455.66
2019-01-31T02:08:46.821Z,-456.64
2019-01-31T02:09:47.056Z,-430.89
2019-01-31T02:10:47.318Z,-434.28
2019-01-31T02:11:47.408Z,-433.16
2019-01-31T02:12:47.599Z,-431.27
2019-01-31T02:13:47.775Z,-431.45
2019-01-31T02:14:47.982Z,-430.63
2019-01-31T02:15:48.154Z,-430.57
2019-01-31T02:16:48.343Z,-430.12
2019-01-31T02:17:48.567Z,-432.31
2019-01-31T02:18:48.843Z,-431.50
2019-01-31T02:19:48.951Z,-432.44
2019-01-31T02:20:49.123Z,-432.53
2019-01-31T02:21:49.318Z,-432.42
2019-01-31T02:22:49.542Z,-433.13
2019-01-31T02:23:49.704Z,-434.29
2019-01-31T02:24:49.910Z,-431.75
2019-01-31T02:25:50.108Z,-430.94
2019-01-31T02:26:50.324Z,-432.81
2019-01-31T02:27:50.477Z,-435.80
2019-01-31T02:28:50.650Z,-434.45
2019-01-31T02:29:50.875Z,-434.78
2019-01-31T02:30:51.033Z,-431.19
2019-01-31T02:31:51.218Z,-430.65
2019-01-31T02:32:51.421Z,-433.69
2019-01-31T02:33:51.609Z,-433.84
2019-01-31T02:34:51.909Z,-431.96
2019-01-31T02:35:51.964Z,-433.56
2019-01-31T02:36:52.160Z,-432.34
2019-01-31T02:37:52.348Z,-433.40
2019-01-31T02:38:52.533Z,-432.84
2019-01-31T02:39:52.756Z,-433.43
2019-01-31T02:40:52.956Z,-434.35
2019-01-31T02:41:53.144Z,-435.22
2019-01-31T02:42:53.401Z,-433.24
2019-01-31T02:43:53.569Z,-433.00
2019-01-31T02:44:53.721Z,-433.28
2019-01-31T02:45:53.947Z,-432.32
2019-01-31T02:46:54.103Z,-433.05
2019-01-31T02:47:54.530Z,-432.28
2019-01-31T02:48:54.484Z,-432.09
2019-01-31T02:49:54.682Z,-434.62
2019-01-31T02:50:54.894Z,-432.75
2019-01-31T02:51:55.147Z,-433.97
2019-01-31T02:52:55.280Z,-433.34
2019-01-31T02:53:55.452Z,-433.76
2019-01-31T02:54:55.643Z,-432.26
2019-01-31T02:55:55.843Z,-432.09
2019-01-31T02:56:56.034Z,-433.19
2019-01-31T02:57:56.236Z,-436.23
2019-01-31T02:58:56.422Z,-434.95
2019-01-31T02:59:56.730Z,-433.31
2019-01-31T03:00:56.794Z,-432.00
2019-01-31T03:01:56.980Z,-431.47
2019-01-31T03:02:57.180Z,-435.69
2019-01-31T03:03:57.364Z,-431.03
2019-01-31T03:04:57.582Z,-434.10
2019-01-31T03:05:57.753Z,-432.86
2019-01-31T03:06:57.940Z,-431.45
2019-01-31T03:07:58.206Z,-435.66
2019-01-31T03:08:58.314Z,-434.04
2019-01-31T03:09:58.506Z,-432.74
2019-01-31T03:10:58.710Z,-434.55
2019-01-31T03:11:58.885Z,-432.10
2019-01-31T03:12:59.095Z,-433.03
2019-01-31T03:14:09.458Z,-431.82
2019-01-31T03:15:00.457Z,-434.18
2019-01-31T03:15:59.724Z,-433.12
2019-01-31T03:16:59.815Z,-432.36
2019-01-31T03:18:00.039Z,-431.81
2019-01-31T03:19:00.236Z,-433.68
2019-01-31T03:20:00.422Z,-432.51
2019-01-31T03:21:00.630Z,-432.55
2019-01-31T03:22:00.801Z,-433.99
2019-01-31T03:23:01.013Z,-432.69
2019-01-31T03:24:01.206Z,-432.41
2019-01-31T03:25:01.460Z,-433.35
2019-01-31T03:26:01.592Z,-430.21
2019-01-31T03:27:01.763Z,-435.21
2019-01-31T03:28:01.974Z,-431.73
2019-01-31T03:29:02.146Z,-430.01
2019-01-31T03:30:02.339Z,-428.49
2019-01-31T03:31:02.567Z,-431.30
2019-01-31T03:32:02.970Z,-428.62
2019-01-31T03:33:03.136Z,-430.38
2019-01-31T03:34:03.119Z,-426.63
2019-01-31T03:35:03.313Z,-425.00
2019-01-31T03:36:03.524Z,-425.59
2019-01-31T03:37:03.710Z,-426.86
2019-01-31T03:38:03.896Z,-426.97
2019-01-31T03:39:04.068Z,-427.33
2019-01-31T03:40:06.991Z,-430.52
2019-01-31T03:41:04.582Z,-430.83
2019-01-31T03:42:04.648Z,-429.50
2019-01-31T03:43:04.840Z,-430.48
2019-01-31T03:44:05.064Z,-432.12
2019-01-31T03:45:05.225Z,-431.03
2019-01-31T03:46:05.449Z,-426.89
2019-01-31T03:47:05.627Z,-427.18
2019-01-31T03:48:05.818Z,-431.74
2019-01-31T03:49:06.090Z,-429.05
2019-01-31T03:50:06.871Z,-429.47
2019-01-31T03:51:06.394Z,-430.23
2019-01-31T03:52:06.578Z,-432.24
2019-01-31T03:53:06.791Z,-431.71
2019-01-31T03:54:07.001Z,-430.35
2019-01-31T03:55:07.163Z,-428.35
2019-01-31T03:56:07.376Z,-429.57
2019-01-31T03:57:07.561Z,-430.24
2019-01-31T03:58:07.760Z,-431.69
2019-01-31T03:59:07.959Z,-429.40
2019-01-31T04:00:08.126Z,-428.18
2019-01-31T04:01:08.338Z,-428.86
2019-01-31T04:02:08.486Z,-430.42
2019-01-31T04:03:08.698Z,-430.74
2019-01-31T04:04:08.923Z,-430.96
2019-01-31T04:05:09.126Z,-431.26
2019-01-31T04:06:09.402Z,-428.53
2019-01-31T04:07:09.459Z,-431.05
2019-01-31T04:08:09.678Z,-431.92
2019-01-31T04:09:09.874Z,-429.40
2019-01-31T04:10:18.712Z,-431.37
2019-01-31T04:11:11.252Z,-432.51
2019-01-31T04:12:10.429Z,-431.19
2019-01-31T04:13:10.617Z,-429.59
2019-01-31T04:14:10.986Z,-430.74
2019-01-31T04:15:11.028Z,-428.06
2019-01-31T04:16:11.226Z,-427.68
2019-01-31T04:17:11.398Z,-429.01
2019-01-31T04:18:11.585Z,-429.18
2019-01-31T04:19:11.799Z,-428.98
2019-01-31T04:20:11.974Z,-429.50
2019-01-31T04:21:12.183Z,-429.30
2019-01-31T04:22:12.396Z,-427.99
2019-01-31T04:23:12.557Z,-427.58
2019-01-31T04:24:12.735Z,-429.57
2019-01-31T04:25:12.950Z,-430.32
2019-01-31T04:26:13.130Z,-430.62
2019-01-31T04:27:13.305Z,-431.55
2019-01-31T04:28:13.720Z,-429.26
2019-01-31T04:29:13.711Z,-428.71
2019-01-31T04:30:13.920Z,-430.87
2019-01-31T04:31:14.071Z,-429.56
2019-01-31T04:32:14.246Z,-430.79
2019-01-31T04:33:14.444Z,-428.01
2019-01-31T04:34:14.663Z,-426.44
2019-01-31T04:35:14.841Z,-422.63
2019-01-31T04:36:15.028Z,-421.98
2019-01-31T04:37:15.214Z,-425.20
2019-01-31T04:38:15.441Z,-424.14
2019-01-31T04:39:15.698Z,-422.18
2019-01-31T04:40:15.783Z,-420.12
2019-01-31T04:41:15.963Z,-424.48
2019-01-31T04:42:16.173Z,-424.58
2019-01-31T04:43:16.364Z,-424.74
2019-01-31T04:44:16.587Z,-425.37
2019-01-31T04:45:16.749Z,-425.32
2019-01-31T04:46:16.946Z,-423.83
2019-01-31T04:47:17.274Z,-424.30
2019-01-31T04:48:17.333Z,-424.95
2019-01-31T04:49:17.543Z,-426.00
2019-01-31T04:50:17.708Z,-428.58
2019-01-31T04:51:17.901Z,-427.72
2019-01-31T04:52:18.103Z,-427.58
2019-01-31T04:53:18.306Z,-424.73
2019-01-31T04:54:18.534Z,-425.72
2019-01-31T04:55:18.774Z,-425.63
2019-01-31T04:56:18.873Z,-426.54
2019-01-31T04:57:19.066Z,-426.83
2019-01-31T04:58:19.263Z,-428.53
2019-01-31T04:59:19.486Z,-423.84
2019-01-31T05:00:19.648Z,-423.17
2019-01-31T05:01:19.837Z,-423.85
2019-01-31T05:02:20.042Z,-423.86
2019-01-31T05:03:20.235Z,-422.92
2019-01-31T05:04:20.418Z,-423.64
2019-01-31T05:05:20.588Z,-424.54
2019-01-31T05:06:20.786Z,-419.63
2019-01-31T05:07:20.992Z,-418.74
2019-01-31T05:08:21.160Z,-421.75
2019-01-31T05:09:21.370Z,-422.26
2019-01-31T05:10:21.551Z,-421.93
2019-01-31T05:11:21.814Z,-418.10
2019-01-31T05:12:21.989Z,-420.31
2019-01-31T05:13:22.147Z,-418.57
2019-01-31T05:14:22.372Z,-421.17
2019-01-31T05:15:22.517Z,-417.58
2019-01-31T05:16:22.725Z,-417.99
2019-01-31T05:17:22.932Z,-419.87
2019-01-31T05:18:23.103Z,-421.55
2019-01-31T05:19:23.342Z,-418.88
2019-01-31T05:20:23.611Z,-420.72
2019-01-31T05:21:23.853Z,-421.66
2019-01-31T05:22:23.888Z,-421.34
2019-01-31T05:23:24.057Z,-420.90
2019-01-31T05:24:24.266Z,-422.25
2019-01-31T05:25:24.459Z,-421.63
2019-01-31T05:26:24.617Z,-419.14
2019-01-31T05:27:24.843Z,-420.46
2019-01-31T05:28:25.119Z,-419.33
2019-01-31T05:29:25.226Z,-421.42
2019-01-31T05:30:25.385Z,-419.13
2019-01-31T05:31:25.597Z,-419.90
2019-01-31T05:32:25.817Z,-418.95
2019-01-31T05:33:26.002Z,-420.99
2019-01-31T05:34:26.212Z,-423.76
2019-01-31T05:35:26.377Z,-422.02
2019-01-31T05:36:26.623Z,-422.45
2019-01-31T05:37:26.761Z,-419.32
2019-01-31T05:38:26.940Z,-420.45
2019-01-31T05:39:27.163Z,-419.01
2019-01-31T05:40:27.326Z,-419.49
2019-01-31T05:41:27.515Z,-419.75
2019-01-31T05:42:27.709Z,-422.94
2019-01-31T05:43:27.914Z,-421.86
2019-01-31T05:44:28.198Z,-423.25
2019-01-31T05:45:28.295Z,-423.06
2019-01-31T05:46:28.484Z,-421.91
2019-01-31T05:47:28.684Z,-419.94
2019-01-31T05:48:28.841Z,-420.05
2019-01-31T05:49:29.057Z,-419.92
2019-01-31T05:50:29.277Z,-418.28
2019-01-31T05:51:29.433Z,-425.13
2019-01-31T05:52:29.686Z,-423.42
2019-01-31T05:53:29.871Z,-420.87
2019-01-31T05:54:30.017Z,-420.27
2019-01-31T05:55:30.227Z,-417.17
2019-01-31T05:56:30.416Z,-418.53
2019-01-31T05:57:30.626Z,-417.07
2019-01-31T05:58:30.801Z,-422.03
2019-01-31T05:59:30.991Z,-417.77
2019-01-31T06:00:31.215Z,-418.29
2019-01-31T06:01:31.536Z,-421.23
2019-01-31T06:02:31.642Z,-419.91
2019-01-31T06:03:31.816Z,-418.59
2019-01-31T06:04:32.009Z,-420.31
2019-01-31T06:05:32.222Z,-416.46
2019-01-31T06:06:32.384Z,-419.84
2019-01-31T06:07:32.821Z,-421.77
2019-01-31T06:08:32.766Z,-419.42
2019-01-31T06:09:33.053Z,-422.75
2019-01-31T06:10:33.604Z,-420.16
2019-01-31T06:11:33.339Z,-424.00
2019-01-31T06:12:33.536Z,-419.30
2019-01-31T06:13:33.726Z,-418.13
2019-01-31T06:14:33.920Z,-419.28
2019-01-31T06:15:34.101Z,-421.75
2019-01-31T06:16:34.295Z,-416.95
2019-01-31T06:17:34.568Z,-424.89
2019-01-31T06:18:34.674Z,-420.10
2019-01-31T06:19:34.883Z,-419.77
2019-01-31T06:20:35.082Z,-419.34
2019-01-31T06:21:35.233Z,-420.53
2019-01-31T06:22:35.467Z,-419.25
2019-01-31T06:23:35.639Z,-420.43
2019-01-31T06:24:35.850Z,-421.16
2019-01-31T06:25:36.083Z,-420.74
2019-01-31T06:26:36.176Z,-419.17
2019-01-31T06:27:36.393Z,-420.33
2019-01-31T06:28:36.594Z,-421.94
2019-01-31T06:29:36.941Z,-422.43
2019-01-31T06:30:36.994Z,-418.38
2019-01-31T06:31:37.165Z,-415.92
2019-01-31T06:32:37.379Z,-417.12
2019-01-31T06:33:37.595Z,-415.45
2019-01-31T06:34:37.827Z,-415.71
2019-01-31T06:35:37.971Z,-420.41
2019-01-31T06:36:38.115Z,-417.99
2019-01-31T06:37:38.625Z,-413.95
2019-01-31T06:38:38.489Z,-414.46
2019-01-31T06:39:38.701Z,-417.74
2019-01-31T06:40:38.925Z,-402.33
2019-01-31T06:41:39.084Z,-398.65
2019-01-31T06:42:39.419Z,-405.25
2019-01-31T06:43:39.458Z,-405.49
2019-01-31T06:44:39.668Z,-411.24
2019-01-31T06:45:39.882Z,-413.72
2019-01-31T06:46:40.079Z,-415.42
2019-01-31T06:47:40.265Z,-415.18
2019-01-31T06:48:40.429Z,-413.46
2019-01-31T06:49:40.645Z,-410.08
2019-01-31T06:50:40.938Z,-416.14
2019-01-31T06:51:41.021Z,-416.52
2019-01-31T06:52:41.216Z,-418.18
2019-01-31T06:53:41.407Z,-415.33
2019-01-31T06:54:41.602Z,-417.42
2019-01-31T06:55:41.809Z,-416.65
2019-01-31T06:56:42.001Z,-416.72
2019-01-31T06:57:42.169Z,-416.34
2019-01-31T06:58:42.460Z,-410.16
2019-01-31T06:59:42.542Z,-415.07
2019-01-31T07:00:42.759Z,-417.07
2019-01-31T07:01:42.961Z,-416.98
2019-01-31T07:02:43.138Z,-412.79
2019-01-31T07:03:43.344Z,-415.09
2019-01-31T07:04:43.550Z,-416.25
2019-01-31T07:05:43.752Z,-416.93
2019-01-31T07:06:43.964Z,-415.95
2019-01-31T07:07:44.157Z,-418.01
2019-01-31T07:08:44.331Z,-416.60
2019-01-31T07:09:44.548Z,-414.71
2019-01-31T07:10:44.708Z,-417.04
2019-01-31T07:11:44.987Z,-415.85
2019-01-31T07:12:45.079Z,-414.49
2019-01-31T07:13:45.289Z,-414.71
2019-01-31T07:14:45.462Z,-412.55
2019-01-31T07:15:45.770Z,-413.58
2019-01-31T07:16:45.837Z,-412.30
2019-01-31T07:17:46.033Z,-415.24
2019-01-31T07:18:46.242Z,-414.02
2019-01-31T07:19:46.424Z,-416.86
2019-01-31T07:20:46.626Z,-415.80
2019-01-31T07:21:46.795Z,-417.90
2019-01-31T07:22:46.974Z,-414.40
2019-01-31T07:23:47.338Z,-417.70
2019-01-31T07:24:47.385Z,-417.07
2019-01-31T07:25:47.585Z,-418.93
2019-01-31T07:26:47.756Z,-417.80
2019-01-31T07:27:47.937Z,-417.16
2019-01-31T07:28:48.158Z,-417.39
2019-01-31T07:29:48.333Z,-419.92
2019-01-31T07:30:48.545Z,-417.63
2019-01-31T07:31:48.777Z,-418.31
2019-01-31T07:32:49.005Z,-416.76
2019-01-31T07:33:49.106Z,-416.42
2019-01-31T07:34:49.304Z,-417.43
2019-01-31T07:35:51.927Z,-415.09
2019-01-31T07:36:49.680Z,-415.82
2019-01-31T07:37:49.870Z,-414.02
2019-01-31T07:38:50.085Z,-412.39
2019-01-31T07:39:50.352Z,-414.47
2019-01-31T07:40:50.439Z,-412.12
2019-01-31T07:41:50.635Z,-408.50
2019-01-31T07:42:50.827Z,-412.70
2019-01-31T07:43:51.147Z,-411.14
2019-01-31T07:44:51.186Z,-413.87
2019-01-31T07:45:51.645Z,-418.45
2019-01-31T07:46:51.855Z,-418.49
2019-01-31T07:47:52.049Z,-416.62
2019-01-31T07:48:52.271Z,-418.50
2019-01-31T07:49:52.398Z,-416.90
2019-01-31T07:50:52.628Z,-417.09
2019-01-31T07:51:52.831Z,-418.55
2019-01-31T07:52:52.996Z,-415.14
2019-01-31T07:53:53.214Z,-417.84
2019-01-31T07:54:53.391Z,-420.36
2019-01-31T07:55:53.574Z,-411.68
2019-01-31T07:56:53.907Z,-410.00
2019-01-31T07:57:54.005Z,-414.02
2019-01-31T07:58:54.215Z,-413.76
2019-01-31T07:59:54.376Z,-417.74
2019-01-31T08:00:54.562Z,-416.42
2019-01-31T08:01:54.776Z,-419.65
2019-01-31T08:02:54.989Z,-419.44
2019-01-31T08:04:02.275Z,-415.96
2019-01-31T08:04:56.501Z,-417.77
2019-01-31T08:05:55.561Z,-419.89
2019-01-31T08:06:55.768Z,-419.07
2019-01-31T08:07:55.979Z,-441.37
2019-01-31T08:08:56.185Z,-441.41
2019-01-31T08:09:56.361Z,-441.77
2019-01-31T08:10:56.571Z,-440.21
2019-01-31T08:11:56.774Z,-442.83
2019-01-31T08:12:56.973Z,-445.93
2019-01-31T08:13:57.121Z,-442.97
2019-01-31T08:14:57.308Z,-439.49
2019-01-31T08:15:57.502Z,-441.23
2019-01-31T08:16:57.711Z,-433.51
2019-01-31T08:17:57.871Z,-443.73
2019-01-31T08:18:58.081Z,-446.75
2019-01-31T08:19:58.263Z,-446.32
2019-01-31T08:20:58.491Z,-449.16
2019-01-31T08:21:58.658Z,-446.39
2019-01-31T08:23:00.057Z,-449.52
2019-01-31T08:23:59.031Z,-447.33
2019-01-31T08:24:59.221Z,-446.28
2019-01-31T08:25:59.440Z,-445.92
2019-01-31T08:26:59.653Z,-443.60
2019-01-31T08:27:59.806Z,-446.21
2019-01-31T08:29:00.054Z,-449.20
2019-01-31T08:30:00.319Z,-447.45
2019-01-31T08:31:00.389Z,-445.71
2019-01-31T08:32:00.669Z,-447.10
2019-01-31T08:33:00.771Z,-445.38
2019-01-31T08:34:00.983Z,-449.44
2019-01-31T08:35:01.140Z,-444.82
2019-01-31T08:36:01.350Z,-446.14
2019-01-31T08:37:01.591Z,-446.50
2019-01-31T08:38:01.847Z,-441.28
2019-01-31T08:39:01.950Z,-443.71
2019-01-31T08:40:02.148Z,-444.55
2019-01-31T08:41:02.321Z,-444.12
2019-01-31T08:42:03.933Z,-445.67
2019-01-31T08:43:02.700Z,-443.79
2019-01-31T08:44:02.919Z,-447.43
2019-01-31T08:45:03.094Z,-446.25
2019-01-31T08:46:03.380Z,-447.90
2019-01-31T08:47:03.502Z,-446.86
2019-01-31T08:48:03.668Z,-447.49
2019-01-31T08:49:03.869Z,-450.29
2019-01-31T08:50:04.039Z,-448.53
2019-01-31T08:51:04.234Z,-450.04
2019-01-31T08:52:04.437Z,-450.66
2019-01-31T08:53:04.623Z,-448.89
2019-01-31T08:54:04.858Z,-448.34
2019-01-31T08:55:04.982Z,-448.16
2019-01-31T08:56:05.202Z,-445.46
2019-01-31T08:57:05.386Z,-447.05
2019-01-31T08:58:05.542Z,-442.68
2019-01-31T08:59:05.770Z,-442.33
2019-01-31T09:00:05.949Z,-445.40
2019-01-31T09:01:06.150Z,-447.85
2019-01-31T09:02:06.459Z,-445.17
2019-01-31T09:03:06.553Z,-447.97
2019-01-31T09:04:06.728Z,-444.69
2019-01-31T09:05:06.917Z,-444.37
2019-01-31T09:06:07.111Z,-447.37
2019-01-31T09:07:07.337Z,-446.49
2019-01-31T09:08:07.492Z,-448.35
2019-01-31T09:09:07.679Z,-448.25
2019-01-31T09:10:07.907Z,-448.03
2019-01-31T09:11:08.251Z,-445.48
2019-01-31T09:12:15.100Z,-443.21
2019-01-31T09:13:09.486Z,-444.32
2019-01-31T09:14:08.665Z,-449.32
2019-01-31T09:15:08.887Z,-444.00
2019-01-31T09:16:09.057Z,-451.00
2019-01-31T09:17:09.311Z,-441.08
2019-01-31T09:18:09.444Z,-447.12
2019-01-31T09:19:09.767Z,-446.77
2019-01-31T09:20:09.851Z,-449.34
2019-01-31T09:21:10.021Z,-447.95
2019-01-31T09:22:10.557Z,-446.93
2019-01-31T09:23:10.403Z,-448.74
2019-01-31T09:24:10.599Z,-446.93
2019-01-31T09:25:10.792Z,-446.29
2019-01-31T09:26:10.982Z,-447.52
2019-01-31T09:27:11.284Z,-444.40
2019-01-31T09:28:11.372Z,-450.59
2019-01-31T09:29:11.644Z,-447.61
2019-01-31T09:30:11.773Z,-445.25
2019-01-31T09:31:11.936Z,-447.22
2019-01-31T09:32:12.184Z,-442.61
2019-01-31T09:33:12.372Z,-444.47
2019-01-31T09:34:12.527Z,-445.15
2019-01-31T09:35:12.817Z,-446.03
2019-01-31T09:36:12.879Z,-440.66
2019-01-31T09:37:13.098Z,-442.22
2019-01-31T09:38:13.286Z,-441.03
2019-01-31T09:39:13.483Z,-445.10
2019-01-31T09:40:13.698Z,-445.62
2019-01-31T09:41:13.905Z,-445.66
2019-01-31T09:42:14.083Z,-451.12
2019-01-31T09:43:14.277Z,-447.70
2019-01-31T09:44:14.559Z,-448.96
2019-01-31T09:45:14.657Z,-446.09
2019-01-31T09:46:14.831Z,-448.80
2019-01-31T09:47:15.058Z,-449.09
2019-01-31T09:48:15.201Z,-449.00
2019-01-31T09:49:15.410Z,-449.42
2019-01-31T09:50:15.608Z,-448.79
2019-01-31T09:51:15.800Z,-448.39
2019-01-31T09:52:16.150Z,-451.02
2019-01-31T09:53:16.165Z,-448.42
2019-01-31T09:54:16.369Z,-448.87
2019-01-31T09:55:16.578Z,-448.60
2019-01-31T09:56:16.745Z,-447.18
2019-01-31T09:57:16.992Z,-446.17
2019-01-31T09:58:17.145Z,-441.74
2019-01-31T09:59:17.320Z,-443.45
2019-01-31T10:00:26.769Z,-449.23
2019-01-31T10:01:18.706Z,-446.89
2019-01-31T10:02:17.920Z,-444.40
2019-01-31T10:03:18.101Z,-445.31
2019-01-31T10:04:18.271Z,-447.20
2019-01-31T10:05:18.494Z,-448.95
2019-01-31T10:06:18.678Z,-448.52
2019-01-31T10:07:18.873Z,-450.38
2019-01-31T10:08:19.090Z,-450.79
2019-01-31T10:09:19.215Z,-450.39
2019-01-31T10:10:19.558Z,-448.49
2019-01-31T10:11:19.619Z,-449.07
2019-01-31T10:12:19.927Z,-449.57
2019-01-31T10:13:20.080Z,-450.35
2019-01-31T10:14:20.239Z,-451.48
2019-01-31T10:15:20.491Z,-451.93
2019-01-31T10:16:20.614Z,-448.45
2019-01-31T10:17:20.967Z,-448.08
2019-01-31T10:18:21.021Z,-425.58
2019-01-31T10:19:23.154Z,-426.00
2019-01-31T10:20:21.388Z,-425.74
2019-01-31T10:21:21.597Z,-425.10
2019-01-31T10:22:21.769Z,-426.07
2019-01-31T10:23:21.946Z,-426.41
2019-01-31T10:24:22.189Z,-424.96
2019-01-31T10:25:22.572Z,-425.36
2019-01-31T10:26:22.585Z,-428.77
2019-01-31T10:27:22.798Z,-427.81
2019-01-31T10:28:22.989Z,-427.92
2019-01-31T10:29:23.164Z,-427.05
2019-01-31T10:30:23.379Z,-427.17
2019-01-31T10:31:23.532Z,-427.46
2019-01-31T10:32:23.751Z,-424.69
2019-01-31T10:33:24.056Z,-425.83
2019-01-31T10:34:24.119Z,-424.35
2019-01-31T10:35:24.310Z,-424.56
2019-01-31T10:36:24.482Z,-413.05
2019-01-31T10:37:24.702Z,-408.77
2019-01-31T10:38:24.906Z,-414.93
2019-01-31T10:39:25.126Z,-420.26
2019-01-31T10:40:25.288Z,-424.31
2019-01-31T10:41:25.622Z,-424.05
2019-01-31T10:42:25.636Z,-423.18
2019-01-31T10:43:25.866Z,-425.47
2019-01-31T10:44:26.038Z,-426.15
2019-01-31T10:45:26.232Z,-428.39
2019-01-31T10:46:26.406Z,-429.80
2019-01-31T10:47:26.583Z,-424.94
2019-01-31T10:48:26.832Z,-428.19
2019-01-31T10:49:27.051Z,-429.94
2019-01-31T10:50:27.205Z,-426.69
2019-01-31T10:51:27.364Z,-429.39
2019-01-31T10:52:27.561Z,-431.26
2019-01-31T10:53:27.792Z,-428.99
2019-01-31T10:54:27.935Z,-430.10
2019-01-31T10:55:28.166Z,-427.92
2019-01-31T10:56:28.340Z,-408.91
2019-01-31T10:57:28.557Z,-418.56
2019-01-31T10:58:28.793Z,-428.39
2019-01-31T10:59:28.915Z,-425.51
2019-01-31T11:00:29.130Z,-424.80
2019-01-31T11:01:29.313Z,-427.95
2019-01-31T11:02:29.745Z,-418.81
2019-01-31T11:03:29.718Z,-425.55
2019-01-31T11:04:29.895Z,-422.83
2019-01-31T11:05:30.094Z,-421.34
2019-01-31T11:06:30.373Z,-422.99
2019-01-31T11:07:30.469Z,-423.74
2019-01-31T11:08:30.694Z,-422.98
2019-01-31T11:09:30.957Z,-427.34
2019-01-31T11:10:31.054Z,-423.23
2019-01-31T11:11:31.247Z,-427.81
2019-01-31T11:12:31.436Z,-426.33
2019-01-31T11:13:31.662Z,-424.87
2019-01-31T11:14:31.941Z,-427.43
2019-01-31T11:15:32.007Z,-432.44
2019-01-31T11:16:32.213Z,-402.89
2019-01-31T11:17:32.412Z,-428.26
2019-01-31T11:18:32.616Z,-430.68
2019-01-31T11:19:32.798Z,-425.84
2019-01-31T11:20:32.966Z,-422.37
2019-01-31T11:21:33.173Z,-425.76
2019-01-31T11:22:33.432Z,-424.56
2019-01-31T11:23:33.572Z,-424.29
2019-01-31T11:24:33.773Z,-428.23
2019-01-31T11:25:33.937Z,-421.25
2019-01-31T11:26:34.152Z,-418.82
2019-01-31T11:27:34.330Z,-428.78
2019-01-31T11:28:34.552Z,-426.91
2019-01-31T11:29:34.731Z,-425.24
2019-01-31T11:30:34.954Z,-423.46
2019-01-31T11:31:35.097Z,-424.90
2019-01-31T11:32:35.275Z,-420.81
2019-01-31T11:33:35.503Z,-422.03
2019-01-31T11:34:35.695Z,-425.70
2019-01-31T11:35:35.871Z,-423.18
2019-01-31T11:36:36.080Z,-424.14
2019-01-31T11:37:36.254Z,-423.72
2019-01-31T11:38:36.493Z,-419.21
2019-01-31T11:39:36.713Z,-423.74
2019-01-31T11:40:36.824Z,-425.48
2019-01-31T11:41:37.032Z,-426.23
2019-01-31T11:42:37.204Z,-429.92
2019-01-31T11:43:37.411Z,-428.81
2019-01-31T11:44:38.055Z,-427.70
2019-01-31T11:45:37.796Z,-425.72
2019-01-31T11:46:38.009Z,-428.18
2019-01-31T11:47:38.295Z,-426.91
2019-01-31T11:48:38.373Z,-427.06
2019-01-31T11:49:38.596Z,-427.24
2019-01-31T11:50:38.754Z,-427.69
2019-01-31T11:51:38.978Z,-422.79
2019-01-31T11:52:39.149Z,-424.89
2019-01-31T11:53:39.401Z,-424.85
2019-01-31T11:54:39.512Z,-425.81
2019-01-31T11:55:39.858Z,-422.97
2019-01-31T11:56:39.924Z,-421.75
2019-01-31T11:57:40.108Z,-422.95
2019-01-31T11:58:40.344Z,-421.67
2019-01-31T11:59:40.529Z,-424.07
2019-01-31T12:00:40.674Z,-420.43
2019-01-31T12:01:40.899Z,-422.89
2019-01-31T12:02:41.069Z,-423.55
2019-01-31T12:03:41.333Z,-427.36
2019-01-31T12:04:41.440Z,-424.75
2019-01-31T12:05:41.617Z,-423.63
2019-01-31T12:06:41.823Z,-423.95
2019-01-31T12:07:42.013Z,-422.59